createdAt,value
2022-10-08T00:02:35.640Z,38.8
2022-10-08T00:07:36.041Z,38.8
2022-10-08T00:12:36.464Z,38.7
2022-10-08T00:17:36.845Z,38.7
2022-10-08T00:22:37.284Z,38.6
2022-10-08T00:27:37.671Z,38.6
2022-10-08T00:32:38.104Z,38.6
2022-10-08T00:37:38.744Z,38.6
2022-10-08T00:42:39.198Z,38.5
2022-10-08T00:47:39.575Z,38.4
2022-10-08T00:52:39.961Z,38.4
2022-10-08T00:57:40.366Z,38.4
2022-10-08T01:02:40.785Z,38.3
2022-10-08T01:07:41.171Z,38.2
2022-10-08T01:12:41.549Z,38.2
2022-10-08T01:17:41.943Z,38.2
2022-10-08T01:22:42.347Z,38.1
2022-10-08T01:27:42.711Z,38.1
2022-10-08T01:32:43.067Z,38.1
2022-10-08T01:37:43.420Z,38.1
2022-10-08T01:42:43.975Z,38
2022-10-08T01:47:44.487Z,37.9
2022-10-08T01:52:45.039Z,37.9
2022-10-08T01:57:45.561Z,37.9
2022-10-08T02:02:46.102Z,37.8
2022-10-08T02:07:46.729Z,37.8
2022-10-08T02:12:47.268Z,37.7
2022-10-08T02:17:47.877Z,37.7
2022-10-08T02:22:48.392Z,37.7
2022-10-08T02:27:48.900Z,37.6
2022-10-08T02:32:49.396Z,37.6
2022-10-08T02:37:49.823Z,37.6
2022-10-08T02:42:50.357Z,37.6
2022-10-08T02:47:50.927Z,37.5
2022-10-08T02:52:51.273Z,37.5
2022-10-08T02:57:51.611Z,37.4
2022-10-08T03:02:52.150Z,37.4
2022-10-08T03:07:52.595Z,37.4
2022-10-08T03:12:52.896Z,37.3
2022-10-08T03:17:53.246Z,37.3
2022-10-08T03:22:53.562Z,37.2
2022-10-08T03:27:53.855Z,37.2
2022-10-08T03:32:54.158Z,37.2
2022-10-08T03:37:54.493Z,37.1
2022-10-08T03:42:54.778Z,37.1
2022-10-08T03:47:55.330Z,37.1
2022-10-08T03:52:55.599Z,37.1
2022-10-08T03:57:55.912Z,37
2022-10-08T04:02:56.271Z,37
2022-10-08T04:07:56.688Z,36.9
2022-10-08T04:12:57.019Z,36.9
2022-10-08T04:17:57.352Z,36.9
2022-10-08T04:22:57.708Z,36.9
2022-10-08T04:27:58.025Z,36.8
2022-10-08T04:32:58.354Z,36.7
2022-10-08T04:37:58.687Z,36.7
2022-10-08T04:42:59.055Z,36.7
2022-10-08T04:47:59.363Z,36.7
2022-10-08T04:52:59.671Z,36.6
2022-10-08T04:57:59.996Z,36.6
2022-10-08T05:03:00.354Z,36.6
2022-10-08T05:08:00.770Z,36.6
2022-10-08T05:13:01.085Z,36.5
2022-10-08T05:18:01.439Z,36.5
2022-10-08T05:23:01.769Z,36.4
2022-10-08T05:28:02.089Z,36.4
2022-10-08T05:33:02.405Z,36.4
2022-10-08T05:38:03.579Z,36.4
2022-10-08T05:43:03.885Z,36.3
2022-10-08T05:48:04.219Z,36.2
2022-10-08T05:53:08.618Z,36.2
2022-10-08T05:58:09.527Z,36.2
2022-10-08T06:03:09.874Z,36.2
2022-10-08T06:08:10.216Z,36.1
2022-10-08T06:13:10.530Z,36.1
2022-10-08T06:18:10.833Z,36.1
2022-10-08T06:23:11.165Z,36.1
2022-10-08T06:28:11.546Z,36
2022-10-08T06:33:11.894Z,36
2022-10-08T06:38:12.310Z,35.9
2022-10-08T06:43:12.695Z,35.9
2022-10-08T06:48:13.017Z,35.9
2022-10-08T06:53:13.333Z,35.9
2022-10-08T06:58:13.895Z,35.9
2022-10-08T07:03:14.204Z,35.8
2022-10-08T07:08:14.542Z,35.7
2022-10-08T07:13:14.857Z,35.7
2022-10-08T07:18:15.221Z,35.7
2022-10-08T07:23:15.519Z,35.7
2022-10-08T07:28:15.848Z,35.6
2022-10-08T07:33:16.200Z,35.6
2022-10-08T07:38:16.533Z,35.6
2022-10-08T07:43:19.715Z,35.6
2022-10-08T07:48:20.178Z,35.6
2022-10-08T07:53:21.390Z,35.5
2022-10-08T07:58:21.690Z,35.5
2022-10-08T08:03:22.012Z,35.4
2022-10-08T08:08:22.326Z,35.4
2022-10-08T08:13:22.654Z,35.4
2022-10-08T08:18:22.963Z,35.4
2022-10-08T08:23:23.298Z,35.4
2022-10-08T08:28:23.674Z,35.3
2022-10-08T08:33:24.009Z,35.2
2022-10-08T08:38:24.314Z,35.2
2022-10-08T08:43:24.634Z,35.2
2022-10-08T08:48:24.918Z,35.2
2022-10-08T08:53:26.130Z,35.1
2022-10-08T08:58:26.393Z,35.1
2022-10-08T09:03:26.763Z,35.1
2022-10-08T09:08:27.060Z,35.1
2022-10-08T09:13:28.231Z,35.1
2022-10-08T09:18:28.542Z,35
2022-10-08T09:23:28.820Z,35
2022-10-08T09:28:29.166Z,35
2022-10-08T09:33:29.505Z,34.9
2022-10-08T09:38:29.812Z,34.9
2022-10-08T09:43:30.946Z,34.9
2022-10-08T09:48:31.227Z,34.9
2022-10-08T09:53:31.520Z,34.9
2022-10-08T09:58:31.861Z,34.8
2022-10-08T10:03:32.214Z,34
2022-10-08T10:08:32.539Z,33.6
2022-10-08T10:13:32.776Z,33.5
2022-10-08T10:18:32.987Z,33.4
2022-10-08T10:23:33.216Z,33.4
2022-10-08T10:28:33.562Z,33.4
2022-10-08T10:33:33.914Z,33.4
2022-10-08T10:38:34.236Z,33.4
2022-10-08T10:43:34.464Z,33.3
2022-10-08T10:48:34.754Z,33.3
2022-10-08T10:53:34.985Z,33.3
2022-10-08T10:58:35.255Z,33.3
2022-10-08T11:03:35.450Z,32.2
2022-10-08T11:08:35.633Z,31.9
2022-10-08T11:13:37.438Z,31.9
2022-10-08T11:18:39.239Z,31.8
2022-10-08T11:23:41.122Z,31.8
2022-10-08T11:28:41.527Z,31.8
2022-10-08T11:33:43.353Z,31.7
2022-10-08T11:38:45.177Z,31.7
2022-10-08T11:43:46.973Z,31.6
2022-10-08T11:48:49.010Z,31.6
2022-10-08T11:53:50.856Z,31.6
2022-10-08T11:58:52.655Z,31.6
2022-10-08T12:03:54.573Z,31.6
2022-10-08T12:08:56.542Z,31.5
2022-10-08T12:13:58.373Z,31.5
2022-10-08T12:19:03.749Z,31.5
2022-10-08T12:24:05.553Z,31.4
2022-10-08T12:29:07.432Z,31.4
2022-10-08T12:34:09.266Z,31.4
2022-10-08T12:39:11.418Z,31.4
2022-10-08T12:44:13.237Z,31.4
2022-10-08T12:49:15.076Z,31.4
2022-10-08T12:54:16.919Z,31.3
2022-10-08T12:59:18.727Z,31.3
2022-10-08T13:04:20.518Z,31.3
2022-10-08T13:09:22.368Z,31.3
2022-10-08T13:14:24.426Z,31.2
2022-10-08T13:19:26.188Z,31.2
2022-10-08T13:24:28.228Z,31.2
2022-10-08T13:29:30.156Z,31.2
2022-10-08T13:34:32.021Z,31.2
2022-10-08T13:39:33.820Z,31.1
2022-10-08T13:44:35.600Z,31.1
2022-10-08T13:49:37.411Z,31.1
2022-10-08T13:54:42.261Z,31.1
2022-10-08T13:59:44.273Z,31.1
2022-10-08T14:04:46.063Z,31.1
2022-10-08T14:09:48.101Z,31.1
2022-10-08T14:14:50.089Z,31
2022-10-08T14:19:51.909Z,31
2022-10-08T14:24:53.724Z,31
2022-10-08T14:29:55.547Z,31
2022-10-08T14:34:57.340Z,30.9
2022-10-08T14:39:57.538Z,31
2022-10-08T14:44:57.709Z,30.9
2022-10-08T14:49:57.883Z,30.9
2022-10-08T14:54:58.070Z,30.9
2022-10-08T14:59:58.300Z,30.9
2022-10-08T15:04:58.469Z,30.9
2022-10-08T15:09:58.650Z,30.5
2022-10-08T15:15:00.677Z,29.8
2022-10-08T15:20:02.499Z,29.6
2022-10-08T15:25:03.539Z,29.6
2022-10-08T15:30:05.373Z,29.6
2022-10-08T15:35:07.289Z,29.6
2022-10-08T15:40:09.113Z,29.6
2022-10-08T15:45:10.951Z,29.6
2022-10-08T15:50:12.793Z,32
2022-10-08T15:55:13.040Z,34.9
2022-10-08T16:00:13.589Z,36.6
2022-10-08T16:05:13.935Z,38.1
2022-10-08T16:10:14.366Z,39.4
2022-10-08T16:15:15.655Z,40.6
2022-10-08T16:20:16.115Z,41.7
2022-10-08T16:25:16.587Z,42.6
2022-10-08T16:30:17.130Z,43.5
2022-10-08T16:35:17.658Z,44.2
2022-10-08T16:40:18.261Z,44.8
2022-10-08T16:45:18.861Z,45.4
2022-10-08T16:50:19.493Z,46
2022-10-08T16:55:20.144Z,46.2
2022-10-08T17:00:21.015Z,46
2022-10-08T17:05:21.614Z,45.9
2022-10-08T17:10:22.248Z,45.9
2022-10-08T17:15:23.142Z,45.9
2022-10-08T17:20:23.765Z,45.8
2022-10-08T17:25:24.419Z,45.7
2022-10-08T17:30:25.042Z,44.6
2022-10-08T17:35:25.815Z,44.2
2022-10-08T17:40:26.394Z,44
2022-10-08T17:45:26.936Z,43.9
2022-10-08T17:50:27.502Z,43.8
2022-10-08T17:55:28.029Z,43.7
2022-10-08T18:00:28.563Z,43.6
2022-10-08T18:05:29.140Z,43.5
2022-10-08T18:10:29.661Z,43.4
2022-10-08T18:15:30.222Z,43.3
2022-10-08T18:20:30.817Z,43.2
2022-10-08T18:25:31.383Z,43.1
2022-10-08T18:30:32.736Z,43
2022-10-08T18:35:33.265Z,42.9
2022-10-08T18:40:34.669Z,42.8
2022-10-08T18:45:35.203Z,42.7
2022-10-08T18:50:35.685Z,42.6
2022-10-08T18:55:36.246Z,42.5
2022-10-08T19:00:37.066Z,42.4
2022-10-08T19:05:37.553Z,42.3
2022-10-08T19:10:38.028Z,42.2
2022-10-08T19:15:38.556Z,42.1
2022-10-08T19:20:39.201Z,42.1
2022-10-08T19:25:39.668Z,41.9
2022-10-08T19:30:40.135Z,41.9
2022-10-08T19:35:40.563Z,38.7
2022-10-08T19:40:40.927Z,37.6
2022-10-08T19:45:41.255Z,37.4
2022-10-08T19:50:41.577Z,37.2
2022-10-08T19:55:41.954Z,37.2
2022-10-08T20:00:42.251Z,37.1
2022-10-08T20:05:42.562Z,37.1
2022-10-08T20:10:42.891Z,37
2022-10-08T20:15:45.470Z,36.9
2022-10-08T20:20:48.076Z,36.9
2022-10-08T20:25:48.491Z,36.8
2022-10-08T20:30:48.924Z,36.5
2022-10-08T20:35:49.530Z,36.4
2022-10-08T20:40:49.823Z,36.3
2022-10-08T20:45:50.146Z,36.2
2022-10-08T20:50:51.337Z,36.2
2022-10-08T20:55:51.618Z,36.2
2022-10-08T21:00:51.981Z,36.1
2022-10-08T21:05:52.316Z,36.1
2022-10-08T21:10:52.895Z,36
2022-10-08T21:15:53.187Z,35.9
2022-10-08T21:20:53.490Z,35.9
2022-10-08T21:25:53.802Z,35.8
2022-10-08T21:30:54.370Z,35.8
2022-10-08T21:35:54.677Z,35.7
2022-10-08T21:40:54.990Z,35.7
2022-10-08T21:45:55.542Z,35.7
2022-10-08T21:50:55.927Z,35.6
2022-10-08T21:55:56.247Z,35.6
2022-10-08T22:00:56.780Z,35.6
2022-10-08T22:05:57.117Z,35.5
2022-10-08T22:10:57.426Z,35.4
2022-10-08T22:15:57.731Z,35.4
2022-10-08T22:20:58.019Z,35.4
2022-10-08T22:25:58.548Z,35.3
2022-10-08T22:30:58.851Z,35.3
2022-10-08T22:35:59.160Z,35.2
2022-10-08T22:40:59.457Z,35.2
2022-10-08T22:45:59.837Z,35.2
2022-10-08T22:51:00.193Z,35.1
2022-10-08T22:56:00.470Z,35.1
2022-10-08T23:01:00.748Z,35.1
2022-10-08T23:06:01.021Z,35
2022-10-08T23:11:01.329Z,35
2022-10-08T23:16:01.609Z,34.9
2022-10-08T23:21:01.875Z,34.9
2022-10-08T23:26:02.141Z,34.9
2022-10-08T23:31:02.411Z,34.9
2022-10-08T23:36:02.912Z,34.8
2022-10-08T23:41:03.169Z,34.8
2022-10-08T23:46:03.469Z,34.7
2022-10-08T23:51:03.791Z,34.7
2022-10-08T23:56:04.062Z,34.7
